Time,TemperatureF,DewpointF,PressureIn,WindDirection,WindDirectionDegrees,WindSpeedMPH,WindSpeedGustMPH,Humidity,HourlyPrecipIn,Conditions,Clouds,dailyrainin,SoftwareType,DateUTC
2013-04-16 00:29:00,40.9,34.3,30.14,ENE,64,1.0,3.0,77,0.00,,---,0.00,VWS V14.00,2013-04-16 04:29:00,
2013-04-16 00:59:00,40.7,33.7,30.15,ENE,76,3.0,4.0,76,0.00,,---,0.00,VWS V14.00,2013-04-16 04:59:00,
2013-04-16 01:29:00,40.9,33.9,30.14,ENE,67,0.0,1.0,76,0.00,,---,0.00,VWS V14.00,2013-04-16 05:29:00,
2013-04-16 01:59:00,40.5,33.9,30.12,NE,46,0.0,1.0,77,0.00,,---,0.00,VWS V14.00,2013-04-16 05:59:00,
2013-04-16 02:29:00,39.9,33.6,30.11,NE,49,3.0,4.0,78,0.00,,---,0.00,VWS V14.00,2013-04-16 06:29:00,
2013-04-16 02:59:00,40.0,34.0,30.10,NE,34,3.0,4.0,79,0.00,,---,0.00,VWS V14.00,2013-04-16 06:59:00,
2013-04-16 03:29:00,39.9,33.9,30.10,NE,34,0.0,2.0,79,0.00,,---,0.00,VWS V14.00,2013-04-16 07:29:00,
2013-04-16 03:59:00,40.4,34.4,30.08,NE,43,2.0,3.0,79,0.00,,---,0.00,VWS V14.00,2013-04-16 07:59:00,
2013-04-16 04:29:00,40.2,34.5,30.08,NE,51,2.0,4.0,80,0.00,,---,0.00,VWS V14.00,2013-04-16 08:29:00,
2013-04-16 04:59:00,40.9,34.9,30.05,ENE,75,1.0,5.0,79,0.00,,---,0.00,VWS V14.00,2013-04-16 08:59:00,
2013-04-16 05:29:00,41.6,34.9,30.05,NE,40,4.0,5.0,77,0.00,,---,0.00,VWS V14.00,2013-04-16 09:29:00,
2013-04-16 05:59:00,41.6,35.3,30.05,NE,47,3.0,3.0,78,0.00,,---,0.00,VWS V14.00,2013-04-16 09:59:00,
2013-04-16 06:29:00,41.6,35.6,30.04,NE,43,1.0,3.0,79,0.00,,---,0.00,VWS V14.00,2013-04-16 10:29:00,
2013-04-16 06:59:00,42.0,36.0,30.03,ENE,69,3.0,4.0,79,0.00,,---,0.00,VWS V14.00,2013-04-16 10:59:00,
2013-04-16 07:29:00,42.2,36.2,30.03,NE,44,6.0,6.0,79,0.00,,---,0.00,VWS V14.00,2013-04-16 11:29:00,
2013-04-16 07:59:00,42.9,36.8,30.01,ENE,57,2.0,4.0,79,0.00,,---,0.00,VWS V14.00,2013-04-16 11:59:00,
2013-04-16 08:29:00,42.2,38.6,30.01,ENE,65,0.0,0.0,87,0.01,,---,0.01,VWS V14.00,2013-04-16 12:29:00,
2013-04-16 08:59:00,42.1,39.7,29.99,NE,44,0.0,1.0,91,0.06,,---,0.06,VWS V14.00,2013-04-16 12:59:00,
2013-04-16 09:29:00,42.3,40.4,29.97,ENE,68,1.0,3.0,93,0.09,,---,0.09,VWS V14.00,2013-04-16 13:29:00,
2013-04-16 09:59:00,42.6,40.7,29.95,ENE,77,2.0,3.0,93,0.12,,---,0.13,VWS V14.00,2013-04-16 13:59:00,
2013-04-16 10:29:00,42.7,41.1,29.94,East,86,1.0,2.0,94,0.13,,---,0.19,VWS V14.00,2013-04-16 14:29:00,
2013-04-16 10:59:00,43.6,42.0,29.92,SE,130,0.0,2.0,94,0.17,,---,0.26,VWS V14.00,2013-04-16 14:59:00,
2013-04-16 11:29:00,43.6,42.3,29.91,SSE,154,0.0,4.0,95,0.20,,---,0.32,VWS V14.00,2013-04-16 15:29:00,
2013-04-16 11:59:00,44.2,42.9,29.90,East,84,1.0,2.0,95,0.19,,---,0.38,VWS V14.00,2013-04-16 15:59:00,
2013-04-16 12:29:00,44.4,42.5,29.89,SSW,204,0.0,0.0,93,0.18,,---,0.44,VWS V14.00,2013-04-16 16:29:00,
2013-04-16 12:59:00,44.5,43.2,29.88,South,186,3.0,6.0,95,0.13,,---,0.46,VWS V14.00,2013-04-16 16:59:00,
2013-04-16 13:29:00,44.2,43.1,29.87,South,184,2.0,4.0,96,0.08,,---,0.46,VWS V14.00,2013-04-16 17:29:00,
2013-04-16 13:59:00,45.2,44.4,29.86,SSW,196,3.0,5.0,97,0.02,,---,0.46,VWS V14.00,2013-04-16 17:59:00,
2013-04-16 14:29:00,45.8,45.0,29.86,SSW,210,0.0,1.0,97,0.03,,---,0.49,VWS V14.00,2013-04-16 18:29:00,
2013-04-16 14:59:00,46.3,45.2,29.84,South,171,4.0,4.0,96,0.06,,---,0.51,VWS V14.00,2013-04-16 18:59:00,
2013-04-16 15:29:00,46.4,45.6,29.83,East,100,5.0,8.0,97,0.05,,---,0.51,VWS V14.00,2013-04-16 19:29:00,
2013-04-16 15:59:00,46.0,44.9,29.82,SSE,149,2.0,2.0,96,0.02,,---,0.51,VWS V14.00,2013-04-16 19:59:00,
2013-04-16 16:29:00,45.8,44.7,29.83,East,86,0.0,2.0,96,0.01,,---,0.52,VWS V14.00,2013-04-16 20:29:00,
2013-04-16 16:59:00,46.4,45.6,29.82,SW,220,1.0,1.0,97,0.02,,---,0.53,VWS V14.00,2013-04-16 20:59:00,
2013-04-16 17:29:00,46.4,45.3,29.83,NE,36,0.0,2.0,96,0.02,,---,0.53,VWS V14.00,2013-04-16 21:29:00,
2013-04-16 17:59:00,46.3,45.2,29.83,WNW,292,1.0,3.0,96,0.01,,---,0.53,VWS V14.00,2013-04-16 21:59:00,
2013-04-16 18:29:00,45.7,44.3,29.85,East,98,3.0,3.0,95,0.00,,---,0.53,VWS V14.00,2013-04-16 22:29:00,
2013-04-16 18:59:00,44.4,42.5,29.86,NE,50,3.0,5.0,93,0.00,,---,0.53,VWS V14.00,2013-04-16 22:59:00,
2013-04-16 19:29:00,43.0,40.6,29.88,South,169,2.0,6.0,91,0.00,,---,0.53,VWS V14.00,2013-04-16 23:29:00,
2013-04-16 19:59:00,41.2,38.8,29.91,NNE,13,0.0,4.0,91,0.00,,---,0.53,VWS V14.00,2013-04-16 23:59:00,
2013-04-16 20:29:00,41.0,38.6,29.94,ENE,65,5.0,5.0,91,0.00,,---,0.53,VWS V14.00,2013-04-17 00:29:00,
2013-04-16 20:59:00,40.4,37.4,29.98,NNE,13,0.0,3.0,89,0.00,,---,0.53,VWS V14.00,2013-04-17 00:59:00,
2013-04-16 21:29:00,39.7,37.3,30.00,ENE,61,0.0,3.0,91,0.00,,---,0.53,VWS V14.00,2013-04-17 01:29:00,
2013-04-16 21:59:00,39.4,36.7,30.02,NNE,25,5.0,7.0,90,0.00,,---,0.53,VWS V14.00,2013-04-17 01:59:00,
2013-04-16 22:29:00,39.7,34.7,30.03,West,271,3.0,4.0,82,0.00,,---,0.53,VWS V14.00,2013-04-17 02:29:00,
2013-04-16 22:59:00,39.2,33.9,30.05,SW,215,2.0,3.0,81,0.00,,---,0.53,VWS V14.00,2013-04-17 02:59:00,
2013-04-16 23:29:00,37.4,32.7,30.05,ENE,66,0.0,5.0,83,0.00,,---,0.53,VWS V14.00,2013-04-17 03:29:00,
2013-04-16 23:59:00,37.2,31.9,30.05,ESE,110,0.0,2.0,81,0.00,,---,0.00,VWS V14.00,2013-04-17 03:59:00,